sensor_id;sensor_type;location;lat;lon;timestamp;pressure;altitude;pressure_sealevel;temperature;humidity
69630;BME280;56857;52.212;5.496;2023-06-14T00:01:33;101606.50;;;17.90;94.33
69630;BME280;56857;52.212;5.496;2023-06-14T00:03:59;101612.91;;;17.89;94.08
69630;BME280;56857;52.212;5.496;2023-06-14T00:06:24;101610.41;;;17.87;93.88
69630;BME280;56857;52.212;5.496;2023-06-14T00:08:49;101609.41;;;17.88;94.16
69630;BME280;56857;52.212;5.496;2023-06-14T00:11:15;101615.38;;;17.90;93.54
69630;BME280;56857;52.212;5.496;2023-06-14T00:13:40;101614.56;;;17.90;93.18
69630;BME280;56857;52.212;5.496;2023-06-14T00:16:05;101608.38;;;17.89;93.78
69630;BME280;56857;52.212;5.496;2023-06-14T00:18:31;101612.69;;;17.90;93.62
69630;BME280;56857;52.212;5.496;2023-06-14T00:20:56;101617.06;;;17.91;93.02
69630;BME280;56857;52.212;5.496;2023-06-14T00:23:21;101609.00;;;17.91;91.85
69630;BME280;56857;52.212;5.496;2023-06-14T00:25:47;101609.00;;;17.91;91.94
69630;BME280;56857;52.212;5.496;2023-06-14T00:28:12;101611.69;;;17.91;91.85
69630;BME280;56857;52.212;5.496;2023-06-14T00:30:37;101614.78;;;17.88;92.24
69630;BME280;56857;52.212;5.496;2023-06-14T00:33:03;101613.09;;;17.87;92.37
69630;BME280;56857;52.212;5.496;2023-06-14T00:35:28;101613.31;;;17.86;92.47
69630;BME280;56857;52.212;5.496;2023-06-14T00:37:53;101619.72;;;17.85;93.06
69630;BME280;56857;52.212;5.496;2023-06-14T00:40:19;101610.00;;;17.83;93.20
69630;BME280;56857;52.212;5.496;2023-06-14T00:42:44;101616.38;;;17.82;93.26
69630;BME280;56857;52.212;5.496;2023-06-14T00:45:10;101618.25;;;17.82;92.78
69630;BME280;56857;52.212;5.496;2023-06-14T00:47:36;101613.72;;;17.82;92.08
69630;BME280;56857;52.212;5.496;2023-06-14T00:50:02;101609.56;;;17.80;92.34
69630;BME280;56857;52.212;5.496;2023-06-14T00:52:28;101618.44;;;17.80;91.60
69630;BME280;56857;52.212;5.496;2023-06-14T00:54:54;101622.16;;;17.79;91.96
69630;BME280;56857;52.212;5.496;2023-06-14T00:57:19;101619.84;;;17.76;92.50
69630;BME280;56857;52.212;5.496;2023-06-14T00:59:48;101616.72;;;17.73;92.88
69630;BME280;56857;52.212;5.496;2023-06-14T01:02:14;101620.63;;;17.70;92.98
69630;BME280;56857;52.212;5.496;2023-06-14T01:04:40;101621.66;;;17.69;92.29
69630;BME280;56857;52.212;5.496;2023-06-14T01:07:20;101614.81;;;17.67;91.50
69630;BME280;56857;52.212;5.496;2023-06-14T01:13:20;101620.16;;;17.60;92.38
69630;BME280;56857;52.212;5.496;2023-06-14T01:15:47;101619.31;;;17.59;92.70
69630;BME280;56857;52.212;5.496;2023-06-14T01:18:12;101621.59;;;17.56;92.58
69630;BME280;56857;52.212;5.496;2023-06-14T01:20:38;101622.41;;;17.56;92.33
69630;BME280;56857;52.212;5.496;2023-06-14T01:23:03;101614.09;;;17.51;92.78
69630;BME280;56857;52.212;5.496;2023-06-14T01:25:29;101618.41;;;17.46;93.48
69630;BME280;56857;52.212;5.496;2023-06-14T01:28:00;101613.00;;;17.39;94.59
69630;BME280;56857;52.212;5.496;2023-06-14T01:30:26;101617.91;;;17.35;94.01
69630;BME280;56857;52.212;5.496;2023-06-14T01:32:54;101608.84;;;17.36;93.45
69630;BME280;56857;52.212;5.496;2023-06-14T01:35:21;101617.91;;;17.35;93.10
69630;BME280;56857;52.212;5.496;2023-06-14T01:37:48;101612.78;;;17.34;93.32
69630;BME280;56857;52.212;5.496;2023-06-14T01:40:15;101617.47;;;17.32;93.09
69630;BME280;56857;52.212;5.496;2023-06-14T01:42:41;101615.19;;;17.29;93.07
69630;BME280;56857;52.212;5.496;2023-06-14T01:45:08;101612.50;;;17.29;92.92
69630;BME280;56857;52.212;5.496;2023-06-14T01:47:34;101608.38;;;17.26;93.56
69630;BME280;56857;52.212;5.496;2023-06-14T01:50:01;101608.31;;;17.20;93.79
69630;BME280;56857;52.212;5.496;2023-06-14T01:52:26;101614.06;;;17.17;93.57
69630;BME280;56857;52.212;5.496;2023-06-14T01:54:52;101614.28;;;17.15;94.09
69630;BME280;56857;52.212;5.496;2023-06-14T01:57:17;101617.13;;;17.13;94.93
69630;BME280;56857;52.212;5.496;2023-06-14T01:59:42;101613.81;;;17.11;94.17
69630;BME280;56857;52.212;5.496;2023-06-14T02:02:07;101615.03;;;17.09;94.87
69630;BME280;56857;52.212;5.496;2023-06-14T02:04:33;101609.22;;;17.05;95.08
69630;BME280;56857;52.212;5.496;2023-06-14T02:06:59;101620.53;;;17.01;94.48
69630;BME280;56857;52.212;5.496;2023-06-14T02:09:24;101610.59;;;16.95;95.36
69630;BME280;56857;52.212;5.496;2023-06-14T02:11:49;101602.94;;;16.91;95.96
69630;BME280;56857;52.212;5.496;2023-06-14T02:14:15;101612.56;;;16.86;97.17
69630;BME280;56857;52.212;5.496;2023-06-14T02:16:40;101607.78;;;16.81;97.13
69630;BME280;56857;52.212;5.496;2023-06-14T02:19:05;101618.22;;;16.76;98.15
69630;BME280;56857;52.212;5.496;2023-06-14T02:21:31;101609.94;;;16.71;98.86
69630;BME280;56857;52.212;5.496;2023-06-14T02:23:56;101606.78;;;16.67;99.20
69630;BME280;56857;52.212;5.496;2023-06-14T02:26:21;101613.38;;;16.65;99.59
69630;BME280;56857;52.212;5.496;2023-06-14T02:28:47;101615.41;;;16.63;99.61
69630;BME280;56857;52.212;5.496;2023-06-14T02:31:12;101607.75;;;16.60;99.89
69630;BME280;56857;52.212;5.496;2023-06-14T02:33:37;101605.66;;;16.55;100.00
69630;BME280;56857;52.212;5.496;2023-06-14T02:36:03;101618.75;;;16.50;100.00
69630;BME280;56857;52.212;5.496;2023-06-14T02:38:28;101616.63;;;16.45;100.00
69630;BME280;56857;52.212;5.496;2023-06-14T02:40:54;101618.25;;;16.40;100.00
69630;BME280;56857;52.212;5.496;2023-06-14T02:43:19;101624.34;;;16.34;100.00
69630;BME280;56857;52.212;5.496;2023-06-14T02:45:44;101619.38;;;16.31;100.00
69630;BME280;56857;52.212;5.496;2023-06-14T02:48:10;101623.25;;;16.28;100.00
69630;BME280;56857;52.212;5.496;2023-06-14T02:50:35;101621.16;;;16.24;100.00
69630;BME280;56857;52.212;5.496;2023-06-14T02:53:00;101616.34;;;16.19;100.00
69630;BME280;56857;52.212;5.496;2023-06-14T02:55:25;101621.63;;;16.12;100.00
69630;BME280;56857;52.212;5.496;2023-06-14T02:57:51;101624.09;;;16.14;100.00
69630;BME280;56857;52.212;5.496;2023-06-14T03:00:16;101622.91;;;16.16;100.00
69630;BME280;56857;52.212;5.496;2023-06-14T03:02:42;101634.41;;;16.17;100.00
69630;BME280;56857;52.212;5.496;2023-06-14T03:05:07;101636.84;;;16.12;100.00
69630;BME280;56857;52.212;5.496;2023-06-14T03:07:33;101630.97;;;16.02;100.00
69630;BME280;56857;52.212;5.496;2023-06-14T03:09:59;101639.97;;;16.01;100.00
69630;BME280;56857;52.212;5.496;2023-06-14T03:12:24;101636.31;;;16.02;100.00
69630;BME280;56857;52.212;5.496;2023-06-14T03:14:50;101642.84;;;15.99;100.00
69630;BME280;56857;52.212;5.496;2023-06-14T03:17:15;101645.06;;;15.95;100.00
69630;BME280;56857;52.212;5.496;2023-06-14T03:19:40;101640.09;;;15.92;100.00
69630;BME280;56857;52.212;5.496;2023-06-14T03:22:06;101650.69;;;15.86;100.00
69630;BME280;56857;52.212;5.496;2023-06-14T03:24:31;101650.78;;;15.78;100.00
69630;BME280;56857;52.212;5.496;2023-06-14T03:26:56;101649.66;;;15.72;100.00
69630;BME280;56857;52.212;5.496;2023-06-14T03:29:22;101658.50;;;15.72;100.00
69630;BME280;56857;52.212;5.496;2023-06-14T03:32:01;101659.53;;;15.71;100.00
69630;BME280;56857;52.212;5.496;2023-06-14T03:34:27;101664.69;;;15.73;100.00
69630;BME280;56857;52.212;5.496;2023-06-14T03:36:52;101664.31;;;15.76;100.00
69630;BME280;56857;52.212;5.496;2023-06-14T03:39:17;101669.84;;;15.74;100.00
69630;BME280;56857;52.212;5.496;2023-06-14T03:41:43;101665.16;;;15.77;100.00
69630;BME280;56857;52.212;5.496;2023-06-14T03:44:08;101661.63;;;15.76;100.00
69630;BME280;56857;52.212;5.496;2023-06-14T03:46:33;101656.84;;;15.71;100.00
69630;BME280;56857;52.212;5.496;2023-06-14T03:48:59;101659.41;;;15.65;100.00
69630;BME280;56857;52.212;5.496;2023-06-14T03:51:24;101668.31;;;15.57;100.00
69630;BME280;56857;52.212;5.496;2023-06-14T03:53:49;101667.22;;;15.51;100.00
69630;BME280;56857;52.212;5.496;2023-06-14T03:56:15;101672.28;;;15.46;100.00
69630;BME280;56857;52.212;5.496;2023-06-14T03:58:40;101673.44;;;15.44;100.00
69630;BME280;56857;52.212;5.496;2023-06-14T04:01:05;101676.13;;;15.44;100.00
69630;BME280;56857;52.212;5.496;2023-06-14T04:03:31;101677.81;;;15.45;100.00
69630;BME280;56857;52.212;5.496;2023-06-14T04:06:00;101681.09;;;15.47;100.00
69630;BME280;56857;52.212;5.496;2023-06-14T04:08:25;101685.25;;;15.49;100.00
69630;BME280;56857;52.212;5.496;2023-06-14T04:10:51;101686.09;;;15.50;100.00
69630;BME280;56857;52.212;5.496;2023-06-14T04:13:16;101690.63;;;15.49;100.00
69630;BME280;56857;52.212;5.496;2023-06-14T04:15:41;101694.78;;;15.52;100.00
69630;BME280;56857;52.212;5.496;2023-06-14T04:18:07;101693.13;;;15.51;100.00
69630;BME280;56857;52.212;5.496;2023-06-14T04:20:33;101696.78;;;15.50;100.00
69630;BME280;56857;52.212;5.496;2023-06-14T04:23:11;101703.59;;;15.52;100.00
69630;BME280;56857;52.212;5.496;2023-06-14T04:25:37;101702.59;;;15.53;100.00
69630;BME280;56857;52.212;5.496;2023-06-14T04:28:02;101703.16;;;15.49;100.00
69630;BME280;56857;52.212;5.496;2023-06-14T04:30:27;101701.34;;;15.41;100.00
69630;BME280;56857;52.212;5.496;2023-06-14T04:32:52;101700.53;;;15.41;100.00
69630;BME280;56857;52.212;5.496;2023-06-14T04:35:18;101708.19;;;15.44;100.00
69630;BME280;56857;52.212;5.496;2023-06-14T04:37:43;101705.50;;;15.44;100.00
69630;BME280;56857;52.212;5.496;2023-06-14T04:40:09;101705.88;;;15.41;100.00
69630;BME280;56857;52.212;5.496;2023-06-14T04:42:35;101698.06;;;15.39;100.00
69630;BME280;56857;52.212;5.496;2023-06-14T04:45:00;101707.56;;;15.42;100.00
69630;BME280;56857;52.212;5.496;2023-06-14T04:47:25;101711.31;;;15.47;100.00
69630;BME280;56857;52.212;5.496;2023-06-14T04:49:51;101710.50;;;15.47;100.00
69630;BME280;56857;52.212;5.496;2023-06-14T04:52:16;101704.78;;;15.50;100.00
69630;BME280;56857;52.212;5.496;2023-06-14T04:54:41;101712.09;;;15.56;100.00
69630;BME280;56857;52.212;5.496;2023-06-14T04:57:07;101721.03;;;15.63;100.00
69630;BME280;56857;52.212;5.496;2023-06-14T04:59:32;101718.69;;;15.68;100.00
69630;BME280;56857;52.212;5.496;2023-06-14T05:01:58;101714.00;;;15.70;100.00
69630;BME280;56857;52.212;5.496;2023-06-14T05:04:23;101719.00;;;15.73;100.00
69630;BME280;56857;52.212;5.496;2023-06-14T05:06:48;101715.97;;;15.77;100.00
69630;BME280;56857;52.212;5.496;2023-06-14T05:09:14;101715.22;;;15.83;100.00
69630;BME280;56857;52.212;5.496;2023-06-14T05:11:40;101722.31;;;15.90;100.00
69630;BME280;56857;52.212;5.496;2023-06-14T05:14:06;101726.75;;;15.98;100.00
69630;BME280;56857;52.212;5.496;2023-06-14T05:16:31;101718.84;;;16.05;100.00
69630;BME280;56857;52.212;5.496;2023-06-14T05:18:57;101720.13;;;16.09;100.00
69630;BME280;56857;52.212;5.496;2023-06-14T05:21:22;101729.28;;;16.14;100.00
69630;BME280;56857;52.212;5.496;2023-06-14T05:23:47;101726.22;;;16.17;100.00
69630;BME280;56857;52.212;5.496;2023-06-14T05:26:13;101729.97;;;16.23;100.00
69630;BME280;56857;52.212;5.496;2023-06-14T05:28:38;101726.56;;;16.29;100.00
69630;BME280;56857;52.212;5.496;2023-06-14T05:31:04;101732.00;;;16.36;100.00
69630;BME280;56857;52.212;5.496;2023-06-14T05:33:29;101731.25;;;16.42;100.00
69630;BME280;56857;52.212;5.496;2023-06-14T05:35:54;101739.56;;;16.47;100.00
69630;BME280;56857;52.212;5.496;2023-06-14T05:38:19;101733.47;;;16.53;100.00
69630;BME280;56857;52.212;5.496;2023-06-14T05:40:45;101733.56;;;16.60;100.00
69630;BME280;56857;52.212;5.496;2023-06-14T05:43:10;101738.16;;;16.66;100.00
69630;BME280;56857;52.212;5.496;2023-06-14T05:45:35;101735.56;;;16.73;100.00
69630;BME280;56857;52.212;5.496;2023-06-14T05:48:01;101742.88;;;16.79;100.00
69630;BME280;56857;52.212;5.496;2023-06-14T05:50:26;101745.19;;;16.82;100.00
69630;BME280;56857;52.212;5.496;2023-06-14T05:52:53;101745.81;;;16.84;100.00
69630;BME280;56857;52.212;5.496;2023-06-14T05:55:18;101743.59;;;16.87;100.00
69630;BME280;56857;52.212;5.496;2023-06-14T05:57:44;101758.25;;;16.91;100.00
69630;BME280;56857;52.212;5.496;2023-06-14T06:00:10;101749.84;;;16.95;100.00
69630;BME280;56857;52.212;5.496;2023-06-14T06:02:35;101759.16;;;16.99;100.00
69630;BME280;56857;52.212;5.496;2023-06-14T06:05:01;101758.59;;;17.03;100.00
69630;BME280;56857;52.212;5.496;2023-06-14T06:07:26;101762.56;;;17.07;100.00
69630;BME280;56857;52.212;5.496;2023-06-14T06:09:51;101765.50;;;17.12;100.00
69630;BME280;56857;52.212;5.496;2023-06-14T06:12:16;101771.31;;;17.16;100.00
69630;BME280;56857;52.212;5.496;2023-06-14T06:14:42;101767.44;;;17.19;100.00
69630;BME280;56857;52.212;5.496;2023-06-14T06:17:07;101758.16;;;17.21;100.00
69630;BME280;56857;52.212;5.496;2023-06-14T06:19:32;101763.78;;;17.26;100.00
69630;BME280;56857;52.212;5.496;2023-06-14T06:21:58;101767.56;;;17.32;100.00
69630;BME280;56857;52.212;5.496;2023-06-14T06:24:23;101762.47;;;17.37;100.00
69630;BME280;56857;52.212;5.496;2023-06-14T06:26:48;101773.25;;;17.44;100.00
69630;BME280;56857;52.212;5.496;2023-06-14T06:29:14;101773.84;;;17.46;100.00
69630;BME280;56857;52.212;5.496;2023-06-14T06:31:39;101769.16;;;17.48;100.00
69630;BME280;56857;52.212;5.496;2023-06-14T06:34:04;101772.28;;;17.51;100.00
69630;BME280;56857;52.212;5.496;2023-06-14T06:36:30;101773.78;;;17.60;100.00
69630;BME280;56857;52.212;5.496;2023-06-14T06:38:55;101775.13;;;17.71;100.00
69630;BME280;56857;52.212;5.496;2023-06-14T06:41:20;101784.44;;;17.75;100.00
69630;BME280;56857;52.212;5.496;2023-06-14T06:43:46;101780.72;;;17.76;100.00
69630;BME280;56857;52.212;5.496;2023-06-14T06:46:11;101787.38;;;17.80;100.00
69630;BME280;56857;52.212;5.496;2023-06-14T06:48:36;101784.16;;;17.85;100.00
69630;BME280;56857;52.212;5.496;2023-06-14T06:51:01;101794.09;;;17.91;100.00
69630;BME280;56857;52.212;5.496;2023-06-14T06:53:27;101793.94;;;17.99;100.00
69630;BME280;56857;52.212;5.496;2023-06-14T06:55:52;101794.63;;;18.08;100.00
69630;BME280;56857;52.212;5.496;2023-06-14T06:58:17;101793.03;;;18.14;100.00
69630;BME280;56857;52.212;5.496;2023-06-14T07:00:43;101799.66;;;18.18;100.00
69630;BME280;56857;52.212;5.496;2023-06-14T07:03:08;101801.09;;;18.20;100.00
69630;BME280;56857;52.212;5.496;2023-06-14T07:05:33;101798.69;;;18.25;100.00
69630;BME280;56857;52.212;5.496;2023-06-14T07:07:58;101800.38;;;18.33;100.00
69630;BME280;56857;52.212;5.496;2023-06-14T07:10:24;101811.97;;;18.40;100.00
69630;BME280;56857;52.212;5.496;2023-06-14T07:12:50;101803.94;;;18.47;100.00
69630;BME280;56857;52.212;5.496;2023-06-14T07:15:15;101810.38;;;18.52;100.00
69630;BME280;56857;52.212;5.496;2023-06-14T07:17:41;101811.03;;;18.55;100.00
69630;BME280;56857;52.212;5.496;2023-06-14T07:20:07;101807.13;;;18.57;100.00
69630;BME280;56857;52.212;5.496;2023-06-14T07:22:33;101806.94;;;18.65;100.00
69630;BME280;56857;52.212;5.496;2023-06-14T07:24:59;101803.03;;;18.68;100.00
69630;BME280;56857;52.212;5.496;2023-06-14T07:27:24;101815.25;;;18.70;100.00
69630;BME280;56857;52.212;5.496;2023-06-14T07:29:49;101806.34;;;18.70;100.00
69630;BME280;56857;52.212;5.496;2023-06-14T07:32:15;101813.66;;;18.76;100.00
69630;BME280;56857;52.212;5.496;2023-06-14T07:34:40;101821.53;;;18.84;100.00
69630;BME280;56857;52.212;5.496;2023-06-14T07:37:05;101818.84;;;18.91;99.74
69630;BME280;56857;52.212;5.496;2023-06-14T07:39:31;101823.25;;;18.98;99.31
69630;BME280;56857;52.212;5.496;2023-06-14T07:41:56;101823.88;;;19.07;97.52
69630;BME280;56857;52.212;5.496;2023-06-14T07:44:21;101826.16;;;19.10;95.69
69630;BME280;56857;52.212;5.496;2023-06-14T07:46:46;101814.81;;;19.15;94.65
69630;BME280;56857;52.212;5.496;2023-06-14T07:49:12;101816.69;;;19.21;94.11
69630;BME280;56857;52.212;5.496;2023-06-14T07:51:37;101820.63;;;19.32;93.06
69630;BME280;56857;52.212;5.496;2023-06-14T07:54:03;101822.94;;;19.41;91.03
69630;BME280;56857;52.212;5.496;2023-06-14T07:56:28;101824.41;;;19.57;89.17
69630;BME280;56857;52.212;5.496;2023-06-14T07:58:53;101823.44;;;19.72;87.43
69630;BME280;56857;52.212;5.496;2023-06-14T08:01:19;101832.72;;;19.82;86.46
69630;BME280;56857;52.212;5.496;2023-06-14T08:03:44;101832.94;;;19.87;86.34
69630;BME280;56857;52.212;5.496;2023-06-14T08:06:09;101837.09;;;19.97;84.93
69630;BME280;56857;52.212;5.496;2023-06-14T08:08:35;101834.19;;;20.05;84.26
69630;BME280;56857;52.212;5.496;2023-06-14T08:11:00;101832.94;;;20.14;83.37
69630;BME280;56857;52.212;5.496;2023-06-14T08:13:25;101834.19;;;20.18;82.31
69630;BME280;56857;52.212;5.496;2023-06-14T08:15:51;101841.22;;;20.19;82.72
69630;BME280;56857;52.212;5.496;2023-06-14T08:18:16;101838.75;;;20.24;81.43
69630;BME280;56857;52.212;5.496;2023-06-14T08:20:41;101830.66;;;20.31;80.50
69630;BME280;56857;52.212;5.496;2023-06-14T08:23:07;101838.28;;;20.41;79.63
69630;BME280;56857;52.212;5.496;2023-06-14T08:25:32;101843.03;;;20.45;79.71
69630;BME280;56857;52.212;5.496;2023-06-14T08:27:58;101831.00;;;20.48;80.00
69630;BME280;56857;52.212;5.496;2023-06-14T08:30:24;101836.84;;;20.51;81.32
69630;BME280;56857;52.212;5.496;2023-06-14T08:32:49;101836.00;;;20.57;81.73
69630;BME280;56857;52.212;5.496;2023-06-14T08:35:14;101839.91;;;20.62;81.35
69630;BME280;56857;52.212;5.496;2023-06-14T08:37:40;101834.09;;;20.78;80.04
69630;BME280;56857;52.212;5.496;2023-06-14T08:40:17;101832.16;;;20.92;76.12
69630;BME280;56857;52.212;5.496;2023-06-14T08:42:43;101833.34;;;21.02;75.21
69630;BME280;56857;52.212;5.496;2023-06-14T08:45:10;101833.31;;;21.09;75.29
69630;BME280;56857;52.212;5.496;2023-06-14T08:47:35;101841.56;;;21.14;75.61
69630;BME280;56857;52.212;5.496;2023-06-14T08:50:01;101841.34;;;21.22;75.51
69630;BME280;56857;52.212;5.496;2023-06-14T08:52:27;101835.69;;;21.30;73.84
69630;BME280;56857;52.212;5.496;2023-06-14T08:54:54;101842.50;;;21.40;69.28
69630;BME280;56857;52.212;5.496;2023-06-14T08:57:20;101835.81;;;21.49;67.11
69630;BME280;56857;52.212;5.496;2023-06-14T08:59:47;101839.47;;;21.61;66.42
69630;BME280;56857;52.212;5.496;2023-06-14T09:02:12;101842.06;;;21.74;66.36
69630;BME280;56857;52.212;5.496;2023-06-14T09:04:38;101837.03;;;21.85;61.98
69630;BME280;56857;52.212;5.496;2023-06-14T09:07:03;101840.41;;;21.98;61.84
69630;BME280;56857;52.212;5.496;2023-06-14T09:09:29;101841.13;;;22.12;61.75
69630;BME280;56857;52.212;5.496;2023-06-14T09:11:54;101839.31;;;22.31;61.11
69630;BME280;56857;52.212;5.496;2023-06-14T09:14:20;101837.38;;;22.75;61.35
69630;BME280;56857;52.212;5.496;2023-06-14T09:16:46;101839.63;;;22.97;61.52
69630;BME280;56857;52.212;5.496;2023-06-14T09:19:21;101837.78;;;23.27;61.10
69630;BME280;56857;52.212;5.496;2023-06-14T09:21:48;101841.97;;;23.53;58.96
69630;BME280;56857;52.212;5.496;2023-06-14T09:24:14;101844.75;;;23.77;56.11
69630;BME280;56857;52.212;5.496;2023-06-14T09:26:40;101838.78;;;23.87;53.24
69630;BME280;56857;52.212;5.496;2023-06-14T09:29:05;101844.31;;;24.03;51.03
69630;BME280;56857;52.212;5.496;2023-06-14T09:31:30;101847.03;;;24.27;50.15
69630;BME280;56857;52.212;5.496;2023-06-14T09:33:56;101846.78;;;24.64;49.87
69630;BME280;56857;52.212;5.496;2023-06-14T09:36:23;101852.22;;;25.16;49.24
69630;BME280;56857;52.212;5.496;2023-06-14T09:38:54;101844.41;;;25.82;46.05
69630;BME280;56857;52.212;5.496;2023-06-14T09:41:19;101844.56;;;26.65;44.13
69630;BME280;56857;52.212;5.496;2023-06-14T09:43:46;101855.16;;;27.64;42.34
69630;BME280;56857;52.212;5.496;2023-06-14T09:46:12;101851.25;;;28.67;39.65
69630;BME280;56857;52.212;5.496;2023-06-14T09:48:38;101861.06;;;29.72;36.99
69630;BME280;56857;52.212;5.496;2023-06-14T09:51:04;101847.28;;;30.59;34.99
69630;BME280;56857;52.212;5.496;2023-06-14T09:53:31;101851.94;;;31.52;32.81
69630;BME280;56857;52.212;5.496;2023-06-14T09:55:58;101847.75;;;32.71;31.09
69630;BME280;56857;52.212;5.496;2023-06-14T09:58:26;101856.31;;;33.64;30.14
69630;BME280;56857;52.212;5.496;2023-06-14T10:00:54;101835.75;;;33.76;29.14
69630;BME280;56857;52.212;5.496;2023-06-14T10:03:25;101841.03;;;34.46;27.92
69630;BME280;56857;52.212;5.496;2023-06-14T10:05:54;101846.66;;;35.19;26.79
69630;BME280;56857;52.212;5.496;2023-06-14T10:08:24;101831.56;;;35.39;25.43
69630;BME280;56857;52.212;5.496;2023-06-14T10:10:50;101837.88;;;35.62;25.46
69630;BME280;56857;52.212;5.496;2023-06-14T10:13:16;101839.66;;;35.58;25.15
69630;BME280;56857;52.212;5.496;2023-06-14T10:15:55;101846.03;;;35.44;25.85
69630;BME280;56857;52.212;5.496;2023-06-14T10:24:05;101842.16;;;36.39;24.14
69630;BME280;56857;52.212;5.496;2023-06-14T10:26:32;101840.03;;;37.02;23.71
69630;BME280;56857;52.212;5.496;2023-06-14T10:29:07;101851.06;;;37.19;23.50
69630;BME280;56857;52.212;5.496;2023-06-14T10:31:48;101839.19;;;37.10;23.20
69630;BME280;56857;52.212;5.496;2023-06-14T10:34:24;101847.16;;;37.20;23.43
69630;BME280;56857;52.212;5.496;2023-06-14T10:37:06;101847.97;;;37.29;21.08
69630;BME280;56857;52.212;5.496;2023-06-14T10:39:38;101848.47;;;37.23;22.15
69630;BME280;56857;52.212;5.496;2023-06-14T10:42:04;101846.44;;;36.54;21.98
69630;BME280;56857;52.212;5.496;2023-06-14T10:44:30;101841.19;;;36.43;22.60
69630;BME280;56857;52.212;5.496;2023-06-14T10:46:58;101827.84;;;35.97;21.88
69630;BME280;56857;52.212;5.496;2023-06-14T10:49:43;101840.13;;;34.65;23.88
69630;BME280;56857;52.212;5.496;2023-06-14T10:52:12;101837.34;;;35.15;23.59
69630;BME280;56857;52.212;5.496;2023-06-14T10:54:38;101844.41;;;35.66;23.82
69630;BME280;56857;52.212;5.496;2023-06-14T10:57:06;101833.97;;;36.16;23.41
69630;BME280;56857;52.212;5.496;2023-06-14T10:59:32;101839.19;;;36.27;22.73
69630;BME280;56857;52.212;5.496;2023-06-14T11:02:27;101837.41;;;36.31;22.81
69630;BME280;56857;52.212;5.496;2023-06-14T11:05:03;101841.28;;;36.21;22.25
69630;BME280;56857;52.212;5.496;2023-06-14T11:12:40;101832.59;;;36.45;22.54
69630;BME280;56857;52.212;5.496;2023-06-14T11:15:06;101837.13;;;36.50;22.52
69630;BME280;56857;52.212;5.496;2023-06-14T11:17:32;101831.84;;;36.62;22.06
69630;BME280;56857;52.212;5.496;2023-06-14T11:20:11;101827.84;;;35.21;21.97
69630;BME280;56857;52.212;5.496;2023-06-14T11:22:43;101819.72;;;35.02;22.74
69630;BME280;56857;52.212;5.496;2023-06-14T11:25:09;101828.78;;;35.61;22.80
69630;BME280;56857;52.212;5.496;2023-06-14T11:27:35;101827.09;;;36.05;22.58
69630;BME280;56857;52.212;5.496;2023-06-14T11:30:01;101834.47;;;36.27;21.98
69630;BME280;56857;52.212;5.496;2023-06-14T11:32:26;101823.53;;;36.05;21.75
69630;BME280;56857;52.212;5.496;2023-06-14T11:34:52;101825.50;;;36.13;22.38
69630;BME280;56857;52.212;5.496;2023-06-14T11:37:17;101813.84;;;35.85;22.21
69630;BME280;56857;52.212;5.496;2023-06-14T11:39:45;101819.16;;;36.04;22.51
69630;BME280;56857;52.212;5.496;2023-06-14T11:42:17;101810.97;;;35.98;22.19
69630;BME280;56857;52.212;5.496;2023-06-14T11:44:42;101816.25;;;36.57;22.41
69630;BME280;56857;52.212;5.496;2023-06-14T11:47:07;101813.97;;;37.29;21.60
69630;BME280;56857;52.212;5.496;2023-06-14T11:49:36;101819.66;;;37.59;21.11
69630;BME280;56857;52.212;5.496;2023-06-14T11:52:02;101818.75;;;37.93;21.52
69630;BME280;56857;52.212;5.496;2023-06-14T11:54:27;101816.25;;;38.38;20.60
69630;BME280;56857;52.212;5.496;2023-06-14T11:56:53;101810.44;;;38.52;20.00
69630;BME280;56857;52.212;5.496;2023-06-14T11:59:20;101815.03;;;38.18;20.50
69630;BME280;56857;52.212;5.496;2023-06-14T12:01:47;101823.38;;;38.10;20.33
69630;BME280;56857;52.212;5.496;2023-06-14T12:04:13;101821.63;;;38.35;20.13
69630;BME280;56857;52.212;5.496;2023-06-14T12:06:38;101817.06;;;38.39;20.30
69630;BME280;56857;52.212;5.496;2023-06-14T12:09:04;101820.03;;;38.55;20.20
69630;BME280;56857;52.212;5.496;2023-06-14T12:11:34;101820.47;;;38.36;20.35
69630;BME280;56857;52.212;5.496;2023-06-14T12:14:00;101819.41;;;38.49;20.28
69630;BME280;56857;52.212;5.496;2023-06-14T12:16:34;101824.81;;;38.45;20.94
69630;BME280;56857;52.212;5.496;2023-06-14T12:19:07;101825.63;;;38.16;20.02
69630;BME280;56857;52.212;5.496;2023-06-14T12:21:33;101819.34;;;37.17;20.44
69630;BME280;56857;52.212;5.496;2023-06-14T12:23:58;101823.41;;;36.84;21.25
69630;BME280;56857;52.212;5.496;2023-06-14T12:26:24;101814.94;;;36.81;21.69
69630;BME280;56857;52.212;5.496;2023-06-14T12:28:51;101823.69;;;36.08;21.62
69630;BME280;56857;52.212;5.496;2023-06-14T12:31:16;101828.41;;;35.09;22.46
69630;BME280;56857;52.212;5.496;2023-06-14T12:33:42;101821.88;;;34.55;23.15
69630;BME280;56857;52.212;5.496;2023-06-14T12:36:08;101824.72;;;34.22;23.57
69630;BME280;56857;52.212;5.496;2023-06-14T12:38:35;101824.47;;;33.91;23.92
69630;BME280;56857;52.212;5.496;2023-06-14T12:41:00;101820.16;;;34.18;23.78
69630;BME280;56857;52.212;5.496;2023-06-14T12:43:26;101817.72;;;34.02;23.59
69630;BME280;56857;52.212;5.496;2023-06-14T12:45:51;101813.38;;;33.96;23.76
69630;BME280;56857;52.212;5.496;2023-06-14T12:48:16;101815.75;;;34.03;23.71
69630;BME280;56857;52.212;5.496;2023-06-14T12:50:42;101799.16;;;34.22;23.94
69630;BME280;56857;52.212;5.496;2023-06-14T12:53:07;101816.47;;;34.50;23.85
69630;BME280;56857;52.212;5.496;2023-06-14T12:55:33;101820.88;;;34.37;23.22